Time;durP1;ratioP1;P1;durP2;ratioP2;P2;SDS_P1;SDS_P2;PMS_P1;PMS_P2;Temp;Humidity;BMP_temperature;BMP_pressure;BME280_temperature;BME280_humidity;BME280_pressure;Samples;Min_cycle;Max_cycle;Signal;HPM_P1;HPM_P2
2022/09/28 00:01:27;;;;;;;;;13.00;12.00;;;;;16.67;59.43;97152.22;6163998;28;96506;-64
2022/09/28 00:04:33;;;;;;;;;11.00;10.50;;;;;16.65;59.28;97149.03;6163572;28;96438;-64
2022/09/28 00:07:36;;;;;;;;;10.60;9.60;;;;;16.64;59.02;97140.06;6163941;28;96230;-63
2022/09/28 00:10:42;;;;;;;;;12.00;11.00;;;;;16.63;58.95;97148.50;6146220;28;96750;-63
2022/09/28 00:13:48;;;;;;;;;13.00;11.80;;;;;16.61;59.05;97146.13;6130104;28;98314;-64
2022/09/28 00:16:51;;;;;;;;;12.60;12.60;;;;;16.56;59.09;97139.94;6144737;28;97833;-63
2022/09/28 00:19:57;;;;;;;;;13.00;12.00;;;;;16.54;58.93;97139.41;6163174;28;96831;-63
2022/09/28 00:23:01;;;;;;;;;12.60;11.00;;;;;16.44;58.90;97129.53;6162990;28;96355;-63
2022/09/28 00:26:05;;;;;;;;;13.40;12.20;;;;;16.40;59.07;97137.50;6162660;28;97056;-63
2022/09/28 00:29:16;;;;;;;;;12.33;10.00;;;;;16.36;58.93;97141.94;6145012;28;98454;-63
2022/09/28 00:32:20;;;;;;;;;12.80;12.80;;;;;16.27;59.30;97138.28;6160925;28;96404;-65
2022/09/28 00:35:25;;;;;;;;;14.40;13.00;;;;;16.28;59.09;97142.63;6162982;28;96704;-64
2022/09/28 00:38:29;;;;;;;;;15.00;13.00;;;;;16.23;59.25;97142.72;6145057;28;97061;-64
2022/09/28 00:41:33;;;;;;;;;13.00;12.00;;;;;16.14;59.66;97147.22;6145102;28;96680;-64
2022/09/28 00:44:49;;;;;;;;;13.00;13.00;;;;;16.13;59.40;97142.91;6145632;28;96325;-64
2022/09/28 00:47:59;;;;;;;;;13.60;13.00;;;;;16.14;59.74;97141.00;6144360;28;97595;-64
2022/09/28 00:51:08;;;;;;;;;13.60;13.60;;;;;16.14;59.89;97139.06;6163023;28;96219;-64
2022/09/28 00:54:14;;;;;;;;;13.00;12.00;;;;;16.12;60.05;97141.31;6158517;28;96455;-64
2022/09/28 00:57:19;;;;;;;;;14.60;14.00;;;;;16.11;59.99;97139.69;6142932;28;98587;-65
2022/09/28 01:00:22;;;;;;;;;13.80;13.00;;;;;16.13;59.94;97133.94;6162695;28;96232;-64
2022/09/28 01:03:27;;;;;;;;;16.00;14.50;;;;;16.13;59.62;97128.50;6163313;28;96436;-63
2022/09/28 01:06:34;;;;;;;;;15.00;13.00;;;;;16.11;59.89;97125.28;6145064;28;96548;-63
2022/09/28 01:09:39;;;;;;;;;15.40;14.00;;;;;16.10;59.77;97123.66;6144833;28;97527;-63
2022/09/28 01:12:42;;;;;;;;;17.50;14.00;;;;;16.07;59.80;97116.94;6162863;28;96273;-63
2022/09/28 01:15:53;;;;;;;;;15.40;15.00;;;;;16.07;59.70;97130.53;6145002;28;96789;-63
2022/09/28 01:19:05;;;;;;;;;15.60;14.00;;;;;16.07;59.89;97127.81;6127563;28;98590;-63
2022/09/28 01:22:26;;;;;;;;;14.00;12.67;;;;;16.09;59.74;97117.41;6144737;28;96520;-63
2022/09/28 01:25:40;;;;;;;;;15.00;13.00;;;;;16.09;59.84;97133.72;6144491;28;98189;-63
2022/09/28 01:28:52;;;;;;;;;15.00;14.00;;;;;16.12;59.75;97138.59;6162031;28;97673;-62
2022/09/28 01:32:05;;;;;;;;;13.80;12.80;;;;;16.09;59.78;97136.44;6138617;28;96287;-63
2022/09/28 01:35:13;;;;;;;;;13.25;11.75;;;;;15.94;59.90;97128.56;6145058;28;96242;-62
2022/09/28 01:38:21;;;;;;;;;14.00;13.00;;;;;15.99;59.92;97137.44;6128485;28;96653;-62
2022/09/28 01:41:29;;;;;;;;;13.00;13.00;;;;;15.96;60.02;97145.41;6127454;28;96664;-63
2022/09/28 01:44:40;;;;;;;;;13.00;11.25;;;;;15.94;60.13;97139.44;6147276;28;96238;-63
2022/09/28 01:47:48;;;;;;;;;15.00;13.00;;;;;15.91;60.09;97135.41;6157573;28;96622;-64
2022/09/28 01:50:58;;;;;;;;;12.40;11.40;;;;;15.86;60.52;97143.66;6144051;28;96500;-62
2022/09/28 01:54:09;;;;;;;;;11.50;11.00;;;;;15.89;60.42;97147.69;6161877;28;96270;-63
2022/09/28 01:57:19;;;;;;;;;12.00;11.00;;;;;15.92;60.16;97147.09;6128209;28;96605;-64
2022/09/28 02:00:26;;;;;;;;;12.75;11.25;;;;;15.97;59.58;97147.00;6163959;28;96535;-63
2022/09/28 02:03:38;;;;;;;;;9.00;9.00;;;;;15.96;59.55;97151.63;6164785;28;96482;-62
2022/09/28 02:06:47;;;;;;;;;12.00;11.00;;;;;15.94;59.58;97161.19;6149025;28;97499;-63
2022/09/28 02:09:57;;;;;;;;;14.50;11.00;;;;;15.94;59.60;97161.19;6149243;28;96435;-63
2022/09/28 02:13:05;;;;;;;;;12.00;10.00;;;;;15.93;59.35;97156.88;6147736;28;96530;-64
2022/09/28 02:16:20;;;;;;;;;12.60;10.40;;;;;15.90;59.35;97165.59;6148783;28;96236;-64
2022/09/28 02:19:26;;;;;;;;;11.00;11.00;;;;;15.88;59.41;97162.38;6148716;28;96851;-62
2022/09/28 02:22:36;;;;;;;;;10.50;10.50;;;;;15.93;59.23;97154.16;6130511;28;96711;-62
2022/09/28 02:25:45;;;;;;;;;10.60;10.00;;;;;15.95;59.01;97157.34;6148295;28;96959;-64
2022/09/28 02:28:48;;;;;;;;;10.00;9.40;;;;;15.96;58.71;97157.06;6147845;28;96238;-63
2022/09/28 02:31:53;;;;;;;;;9.00;8.25;;;;;15.91;58.69;97167.22;6131900;28;96946;-63
2022/09/28 02:34:57;;;;;;;;;9.00;8.00;;;;;15.88;58.14;97162.38;6147972;28;96336;-63
2022/09/28 02:38:00;;;;;;;;;9.00;8.00;;;;;15.82;57.81;97167.09;6148154;28;97265;-65
2022/09/28 02:41:09;;;;;;;;;8.50;8.00;;;;;15.79;57.56;97167.66;6151981;28;96748;-65
2022/09/28 02:44:29;;;;;;;;;8.00;6.75;;;;;15.73;57.34;97170.78;6148007;28;96248;-64
2022/09/28 02:47:52;;;;;;;;;7.00;6.40;;;;;15.66;57.37;97167.63;6157445;28;96235;-64
2022/09/28 02:51:06;;;;;;;;;7.00;6.80;;;;;15.58;57.17;97169.13;6163566;28;96306;-64
2022/09/28 02:54:34;;;;;;;;;6.25;6.00;;;;;15.50;57.11;97175.97;6148969;28;99120;-64
2022/09/28 02:57:53;;;;;;;;;7.00;6.40;;;;;15.45;57.28;97172.53;6156816;28;96802;-62
2022/09/28 03:01:07;;;;;;;;;4.00;4.00;;;;;15.40;57.36;97178.03;6130320;28;97270;-63
2022/09/28 03:04:24;;;;;;;;;6.00;6.00;;;;;15.34;57.13;97171.91;6149052;28;96579;-63
2022/09/28 03:07:32;;;;;;;;;9.00;8.00;;;;;15.32;57.14;97156.97;6164640;28;98472;-62
2022/09/28 03:10:43;;;;;;;;;5.80;5.40;;;;;15.29;57.19;97171.16;6162396;28;96359;-63
2022/09/28 03:13:47;;;;;;;;;7.00;6.00;;;;;15.22;57.28;97163.38;6146445;28;97207;-63
2022/09/28 03:16:52;;;;;;;;;6.80;6.80;;;;;15.16;57.25;97167.25;6157589;28;97095;-63
2022/09/28 03:19:56;;;;;;;;;7.60;6.00;;;;;15.10;57.44;97166.50;6144039;28;96667;-63
2022/09/28 03:23:00;;;;;;;;;7.00;7.00;;;;;14.96;57.85;97171.03;6145478;28;97526;-63
2022/09/28 03:26:24;;;;;;;;;8.00;7.50;;;;;14.85;57.86;97176.91;6130540;28;96661;-63
2022/09/28 03:29:30;;;;;;;;;9.00;8.25;;;;;14.73;58.39;97167.28;6164154;28;96609;-63
2022/09/28 03:32:37;;;;;;;;;6.00;5.60;;;;;14.60;58.37;97170.69;6127814;28;96654;-62
2022/09/28 03:35:41;;;;;;;;;6.60;6.60;;;;;14.49;58.51;97163.75;6147049;28;96440;-63
2022/09/28 03:38:45;;;;;;;;;8.00;6.00;;;;;14.42;58.64;97163.28;6129577;28;96675;-63
2022/09/28 03:41:48;;;;;;;;;7.00;6.00;;;;;14.35;58.67;97167.41;6148194;28;96895;-63
2022/09/28 03:44:53;;;;;;;;;8.00;8.00;;;;;14.30;58.86;97169.09;6130447;28;96820;-62
2022/09/28 03:47:56;;;;;;;;;7.00;6.60;;;;;14.22;58.95;97166.97;6146054;28;96809;-63
2022/09/28 03:51:04;;;;;;;;;8.20;7.20;;;;;14.14;58.82;97178.47;6158491;28;96807;-62
2022/09/28 03:54:07;;;;;;;;;7.60;7.60;;;;;14.12;58.91;97185.28;6178736;28;98005;-62
2022/09/28 03:57:10;;;;;;;;;6.75;6.00;;;;;14.10;58.88;97188.25;6154049;28;97868;-62
2022/09/28 04:00:15;;;;;;;;;6.00;6.00;;;;;14.05;58.23;97184.78;6145965;28;96855;-63
2022/09/28 04:03:18;;;;;;;;;7.00;6.00;;;;;13.99;58.28;97178.59;6154218;28;97099;-62
2022/09/28 04:06:24;;;;;;;;;8.00;7.00;;;;;13.95;58.63;97182.97;6152963;28;96666;-63
2022/09/28 04:09:28;;;;;;;;;6.00;6.00;;;;;13.87;58.83;97175.47;6147546;28;96231;-64
2022/09/28 04:12:31;;;;;;;;;5.00;5.00;;;;;13.80;58.77;97175.78;6149009;28;96326;-64
2022/09/28 04:15:36;;;;;;;;;7.00;6.00;;;;;13.73;58.19;97172.59;6141108;28;98921;-64
2022/09/28 04:18:41;;;;;;;;;6.00;6.00;;;;;13.70;58.10;97175.06;6152494;28;96591;-64
2022/09/28 04:22:04;;;;;;;;;6.00;6.00;;;;;13.68;58.20;97185.38;6166619;28;97364;-63
2022/09/28 04:25:09;;;;;;;;;5.60;5.00;;;;;13.68;58.26;97183.44;6161920;28;96288;-65
2022/09/28 04:31:39;;;;;;;;;6.00;6.00;;;;;13.59;58.10;97193.28;6149246;28;96393;-64
2022/09/28 04:34:42;;;;;;;;;6.75;6.00;;;;;13.60;58.26;97191.38;6129185;28;96693;-64
2022/09/28 04:37:48;;;;;;;;;7.60;6.60;;;;;13.58;58.69;97186.25;6162173;28;96592;-64
2022/09/28 04:40:51;;;;;;;;;6.40;6.00;;;;;13.54;58.75;97187.91;6126571;28;96676;-64
2022/09/28 04:43:55;;;;;;;;;4.00;4.00;;;;;13.57;58.59;97186.53;6144436;28;96279;-64
2022/09/28 04:47:00;;;;;;;;;5.67;4.67;;;;;13.58;58.60;97188.97;6127332;28;97035;-64
2022/09/28 04:50:08;;;;;;;;;5.60;5.00;;;;;13.61;58.35;97198.41;6170029;28;96994;-64
2022/09/28 04:53:32;;;;;;;;;5.20;5.20;;;;;13.64;58.94;97192.44;6149316;28;98867;-65
2022/09/28 04:56:36;;;;;;;;;6.00;6.00;;;;;13.61;58.85;97196.53;6160532;28;96815;-63
2022/09/28 04:59:39;;;;;;;;;7.00;6.00;;;;;13.66;58.65;97201.09;6145691;28;96498;-64
2022/09/28 05:02:44;;;;;;;;;7.00;6.00;;;;;13.72;58.58;97202.69;6169508;28;97332;-64
2022/09/28 05:06:14;;;;;;;;;6.00;6.00;;;;;13.80;58.65;97205.59;6131890;28;96163;-63
2022/09/28 05:09:24;;;;;;;;;8.00;7.00;;;;;13.86;58.62;97209.88;6156762;28;96268;-64
2022/09/28 05:12:27;;;;;;;;;5.00;5.00;;;;;13.99;58.21;97213.00;6144628;28;96653;-64
2022/09/28 05:15:31;;;;;;;;;6.25;6.00;;;;;14.15;58.03;97209.06;6143021;28;96374;-64
2022/09/28 05:18:34;;;;;;;;;7.50;7.50;;;;;14.30;57.61;97220.59;6162915;28;96753;-64
2022/09/28 05:21:44;;;;;;;;;8.00;8.00;;;;;14.53;57.35;97207.38;6148813;28;98434;-64
2022/09/28 05:24:49;;;;;;;;;9.40;9.00;;;;;14.69;57.05;97212.34;6159602;28;96266;-64
2022/09/28 05:27:55;;;;;;;;;6.60;6.60;;;;;14.84;56.53;97211.38;6149883;28;96644;-64
2022/09/28 05:31:34;;;;;;;;;5.00;5.00;;;;;14.96;55.90;97210.94;6165769;28;96522;-64
2022/09/28 05:34:54;;;;;;;;;5.00;5.00;;;;;15.04;55.28;97202.97;6137429;28;98711;-65
2022/09/28 05:38:05;;;;;;;;;6.00;6.00;;;;;15.14;54.83;97202.03;6157164;28;96677;-65
2022/09/28 05:41:10;;;;;;;;;6.00;5.00;;;;;15.25;54.37;97208.13;6156607;28;96978;-65
2022/09/28 05:44:14;;;;;;;;;7.00;6.00;;;;;15.42;54.25;97197.56;6158714;28;96452;-65
2022/09/28 05:47:18;;;;;;;;;7.00;6.00;;;;;15.59;53.88;97197.88;6148503;28;96456;-65
2022/09/28 05:50:21;;;;;;;;;6.00;5.50;;;;;15.70;53.58;97215.63;6148487;28;97009;-65
2022/09/28 05:53:25;;;;;;;;;6.00;5.20;;;;;15.92;53.36;97217.75;6165651;28;96699;-65
2022/09/28 05:56:31;;;;;;;;;8.00;7.00;;;;;15.95;53.26;97220.69;6158276;28;96204;-65
2022/09/28 05:59:38;;;;;;;;;6.00;6.00;;;;;16.04;53.34;97212.66;6165820;28;97404;-65
2022/09/28 06:02:41;;;;;;;;;6.00;6.00;;;;;16.17;52.93;97209.19;6132735;28;96730;-65
2022/09/28 06:05:48;;;;;;;;;6.60;6.00;;;;;16.42;52.66;97211.44;6165991;28;96454;-66
2022/09/28 06:08:51;;;;;;;;;5.25;5.00;;;;;16.57;52.40;97215.78;6154989;28;98436;-65
2022/09/28 06:12:28;;;;;;;;;5.00;5.00;;;;;16.79;52.13;97218.66;6130469;28;96308;-66
2022/09/28 06:15:38;;;;;;;;;7.40;6.60;;;;;17.16;51.33;97214.91;6149311;28;96339;-66
2022/09/28 06:18:41;;;;;;;;;5.40;5.00;;;;;17.45;50.39;97208.28;6148953;28;96290;-66
2022/09/28 06:22:03;;;;;;;;;4.00;4.00;;;;;17.38;48.38;97207.91;6166664;28;96914;-64
2022/09/28 06:25:10;;;;;;;;;2.00;2.00;;;;;17.25;47.91;97217.75;6149606;28;97449;-65
2022/09/28 06:28:16;;;;;;;;;4.00;3.60;;;;;17.60;48.53;97218.88;6148553;28;96424;-65
2022/09/28 06:31:22;;;;;;;;;3.60;3.00;;;;;17.88;46.50;97214.16;6149121;28;96781;-65
2022/09/28 06:34:26;;;;;;;;;3.80;3.20;;;;;18.24;45.90;97214.06;6148887;28;96388;-65
2022/09/28 06:37:31;;;;;;;;;3.00;2.75;;;;;18.22;45.77;97210.88;6131486;28;98381;-67
2022/09/28 06:40:37;;;;;;;;;3.00;3.00;;;;;18.77;44.63;97209.41;6130918;28;97054;-66
2022/09/28 06:43:43;;;;;;;;;4.00;3.40;;;;;19.24;43.69;97198.81;6147013;28;96340;-66
2022/09/28 06:46:47;;;;;;;;;4.00;4.00;;;;;19.71;42.54;97195.19;6146069;28;96551;-67
2022/09/28 06:50:23;;;;;;;;;6.00;5.50;;;;;20.42;40.74;97195.59;6126204;28;96637;-67
2022/09/28 06:53:45;;;;;;;;;4.00;4.00;;;;;21.15;39.25;97186.16;6151573;28;98573;-66
2022/09/28 06:57:07;;;;;;;;;5.00;4.00;;;;;21.84;37.25;97191.16;6153244;28;96433;-66
2022/09/28 07:00:13;;;;;;;;;2.00;2.00;;;;;22.27;36.17;97184.47;6151492;28;96486;-68
2022/09/28 07:03:22;;;;;;;;;2.50;2.50;;;;;22.87;35.32;97200.31;6185781;28;96955;-65
2022/09/28 07:06:47;;;;;;;;;3.20;3.00;;;;;23.34;33.59;97208.88;6182192;28;98041;-63
2022/09/28 07:10:19;;;;;;;;;3.00;2.00;;;;;23.79;32.65;97214.25;6168493;28;96606;-64
2022/09/28 07:13:48;;;;;;;;;4.00;4.00;;;;;24.05;31.99;97213.78;6181487;28;96350;-65
2022/09/28 07:16:58;;;;;;;;;2.00;2.00;;;;;24.29;31.50;97202.72;6167179;28;96398;-65
2022/09/28 07:20:16;;;;;;;;;2.00;2.00;;;;;24.58;31.05;97227.13;6170256;28;96307;-65
2022/09/28 07:23:26;;;;;;;;;1.00;1.00;;;;;24.46;30.25;97205.16;6148610;28;96826;-66
2022/09/28 07:27:05;;;;;;;;;2.00;2.00;;;;;24.98;29.99;97213.22;6131367;28;96301;-65
2022/09/28 07:30:19;;;;;;;;;1.75;1.75;;;;;25.49;29.48;97216.03;6165257;28;96630;-64
2022/09/28 07:33:38;;;;;;;;;1.40;1.00;;;;;25.75;28.80;97223.75;6138577;28;96311;-65
2022/09/28 07:37:18;;;;;;;;;1.00;1.00;;;;;25.83;28.36;97220.78;6107447;28;96317;-66
2022/09/28 07:43:50;;;;;;;;;2.00;2.00;;;;;26.05;27.46;97222.00;6138430;28;96257;-66
2022/09/28 07:46:55;;;;;;;;;2.00;2.00;;;;;26.32;26.87;97227.72;6165268;28;96297;-66
2022/09/28 07:50:09;;;;;;;;;1.00;1.00;;;;;26.50;26.59;97226.91;6163618;28;96441;-65
2022/09/28 07:53:24;;;;;;;;;1.00;1.00;;;;;26.32;26.37;97224.97;6130040;28;97943;-65
2022/09/28 07:56:50;;;;;;;;;2.50;2.50;;;;;26.83;26.78;97236.63;6130695;28;96635;-65
2022/09/28 08:00:06;;;;;;;;;2.00;2.00;;;;;26.74;26.23;97229.34;6143947;28;96969;-65
2022/09/28 08:03:22;;;;;;;;;1.00;1.00;;;;;27.16;25.55;97231.28;6149902;28;96639;-64
2022/09/28 08:06:26;;;;;;;;;0.00;0.00;;;;;27.05;25.17;97231.09;6147085;28;96725;-65
2022/09/28 08:09:30;;;;;;;;;2.00;1.80;;;;;27.37;26.22;97219.75;6146499;28;97061;-65
2022/09/28 08:12:55;;;;;;;;;1.00;1.00;;;;;27.25;24.54;97223.53;6151728;28;96395;-65
2022/09/28 08:16:22;;;;;;;;;1.40;1.40;;;;;27.48;24.31;97227.06;6164580;28;96462;-65
2022/09/28 08:22:53;;;;;;;;;2.00;2.00;;;;;25.44;26.04;97230.91;6164400;28;96307;-66
2022/09/28 08:25:57;;;;;;;;;2.00;1.20;;;;;25.01;25.60;97196.00;6143733;28;96498;-65
2022/09/28 08:29:01;;;;;;;;;1.00;1.00;;;;;25.60;26.52;97217.13;6152007;28;96284;-65
2022/09/28 08:32:34;;;;;;;;;1.00;1.00;;;;;25.05;26.51;97211.81;6163003;28;97950;-65
2022/09/28 08:35:57;;;;;;;;;1.50;1.50;;;;;25.26;25.97;97171.78;6167283;28;96695;-67
2022/09/28 08:39:28;;;;;;;;;1.40;1.40;;;;;25.67;24.58;97210.94;6180020;28;97190;-66
2022/09/28 08:42:56;;;;;;;;;1.40;1.00;;;;;26.43;24.21;97209.41;6162858;28;97154;-66
2022/09/28 08:46:24;;;;;;;;;2.00;2.00;;;;;25.76;25.02;97206.81;6151909;28;96616;-65
2022/09/28 08:49:49;;;;;;;;;1.00;1.00;;;;;24.81;25.97;97208.06;6148767;28;97809;-66
2022/09/28 08:52:59;;;;;;;;;2.00;2.00;;;;;24.02;27.02;97204.28;6163667;28;96614;-66
2022/09/28 08:56:40;;;;;;;;;1.00;1.00;;;;;23.75;27.00;97202.31;6134188;28;97024;-66
2022/09/28 08:59:51;;;;;;;;;1.00;1.00;;;;;23.06;28.63;97208.00;6134093;28;96992;-65
2022/09/28 09:03:05;;;;;;;;;1.00;1.00;;;;;22.97;28.05;97199.84;6146277;28;96501;-65
2022/09/28 09:06:21;;;;;;;;;1.00;0.00;;;;;22.86;28.43;97204.19;6170354;28;96263;-66
2022/09/28 09:09:39;;;;;;;;;2.00;2.00;;;;;22.81;28.67;97209.91;6154247;28;97578;-65
2022/09/28 09:12:59;;;;;;;;;2.00;2.00;;;;;22.79;28.97;97206.69;6152490;28;96702;-68
2022/09/28 09:16:11;;;;;;;;;2.00;2.00;;;;;23.00;28.94;97207.41;6143914;28;96392;-64
2022/09/28 09:19:51;;;;;;;;;2.00;2.00;;;;;23.03;28.18;97203.16;6038074;28;97489;-66
2022/09/28 09:23:27;;;;;;;;;1.00;1.00;;;;;23.15;27.98;97205.91;6016472;28;96849;-66
2022/09/28 09:26:38;;;;;;;;;2.00;2.00;;;;;23.87;27.57;97204.22;6040168;28;96823;-65
2022/09/28 09:30:03;;;;;;;;;2.00;2.00;;;;;24.86;25.89;97199.50;6041097;28;96614;-65
2022/09/28 09:33:31;;;;;;;;;2.00;2.00;;;;;25.21;25.07;97194.09;6028094;28;96473;-66
2022/09/28 09:37:08;;;;;;;;;1.60;1.60;;;;;26.32;24.55;97206.44;6040977;28;96681;-65
2022/09/28 09:40:40;;;;;;;;;0.60;0.60;;;;;26.78;23.35;97212.03;6030575;28;97572;-66
2022/09/28 09:44:42;;;;;;;;;1.00;1.00;;;;;27.27;23.33;97214.88;6039632;28;97545;-65
2022/09/28 09:48:14;;;;;;;;;2.00;2.00;;;;;27.25;23.32;97212.47;6039171;28;96882;-65
2022/09/28 09:51:28;;;;;;;;;2.00;2.00;;;;;26.91;23.23;97208.75;6021945;28;96209;-65
2022/09/28 09:54:37;;;;;;;;;1.00;1.00;;;;;26.96;23.48;97188.28;6023466;28;96660;-65
2022/09/28 09:57:51;;;;;;;;;2.00;2.00;;;;;27.41;23.14;97207.59;6137000;28;96373;-66
2022/09/28 10:01:27;;;;;;;;;2.00;2.00;;;;;27.30;23.08;97205.81;6142550;28;96773;-67
2022/09/28 10:04:54;;;;;;;;;3.00;3.00;;;;;28.18;22.43;97198.81;6160729;28;97249;-67
2022/09/28 10:08:15;;;;;;;;;2.00;1.00;;;;;27.90;22.92;97192.88;6151145;28;97053;-68
2022/09/28 10:11:25;;;;;;;;;2.00;2.00;;;;;27.75;22.61;97183.59;6152435;28;96244;-67
2022/09/28 10:14:31;;;;;;;;;1.00;0.25;;;;;27.71;22.70;97187.47;6131922;28;99473;-67
2022/09/28 10:17:38;;;;;;;;;1.00;1.00;;;;;26.98;23.81;97192.25;6144814;28;98426;-65
2022/09/28 10:21:01;;;;;;;;;2.00;1.50;;;;;27.36;23.21;97180.22;6179257;28;96306;-65
2022/09/28 10:24:31;;;;;;;;;1.00;1.00;;;;;27.62;23.37;97181.41;6169308;28;96573;-65
2022/09/28 10:27:36;;;;;;;;;2.00;2.00;;;;;27.93;22.85;97175.50;6152292;28;96619;-66
2022/09/28 10:30:43;;;;;;;;;1.00;1.00;;;;;27.73;22.66;97176.81;6177216;28;96873;-67
2022/09/28 10:33:47;;;;;;;;;1.00;1.00;;;;;27.88;22.36;97176.63;6165825;28;96480;-67
2022/09/28 10:36:56;;;;;;;;;1.00;1.00;;;;;27.53;23.76;97182.47;6163095;28;97285;-67
2022/09/28 10:40:02;;;;;;;;;2.00;1.40;;;;;26.61;24.48;97177.34;6149335;28;96400;-67
2022/09/28 10:43:20;;;;;;;;;1.00;1.00;;;;;25.77;25.80;97172.53;6160599;28;96615;-67
2022/09/28 10:46:24;;;;;;;;;0.50;0.50;;;;;26.44;27.05;97170.34;6149037;28;97469;-66
2022/09/28 10:49:39;;;;;;;;;1.00;1.00;;;;;26.50;25.22;97171.63;6170053;28;96251;-67
2022/09/28 10:52:50;;;;;;;;;1.00;1.00;;;;;26.72;25.25;97154.28;6162282;28;96844;-66
2022/09/28 10:56:35;;;;;;;;;1.00;1.00;;;;;26.17;25.46;97161.13;6165865;28;96499;-65
2022/09/28 10:59:43;;;;;;;;;2.00;2.00;;;;;25.91;25.68;97158.22;6169631;28;96236;-65
2022/09/28 11:03:06;;;;;;;;;1.00;1.00;;;;;25.40;26.28;97146.47;6155652;28;96993;-66
2022/09/28 11:06:10;;;;;;;;;2.00;2.00;;;;;25.37;27.38;97155.44;6147592;28;96577;-65
2022/09/28 11:09:26;;;;;;;;;2.20;2.20;;;;;25.18;27.13;97150.69;6174848;28;96452;-66
2022/09/28 11:12:44;;;;;;;;;2.00;2.00;;;;;25.23;27.49;97141.31;6148626;28;96745;-65
2022/09/28 11:15:49;;;;;;;;;1.80;1.80;;;;;25.12;27.09;97121.00;6137738;28;96635;-65
2022/09/28 11:19:05;;;;;;;;;2.00;1.20;;;;;25.03;27.42;97123.94;6166431;28;96077;-65
2022/09/28 11:22:21;;;;;;;;;1.00;1.00;;;;;24.98;28.14;97113.97;6150153;28;96881;-64
2022/09/28 11:25:30;;;;;;;;;2.50;2.50;;;;;24.91;27.77;97113.03;6164610;28;96639;-65
2022/09/28 11:28:37;;;;;;;;;3.00;3.00;;;;;24.66;28.48;97117.09;6167203;28;96812;-64
2022/09/28 11:31:51;;;;;;;;;3.00;3.00;;;;;24.62;28.26;97121.72;6167018;28;96799;-64
2022/09/28 11:35:00;;;;;;;;;2.00;2.00;;;;;24.51;28.42;97115.94;6150270;28;98620;-65
2022/09/28 11:38:21;;;;;;;;;2.50;2.50;;;;;24.54;28.78;97118.78;6160047;28;96165;-65
2022/09/28 11:42:06;;;;;;;;;3.00;2.00;;;;;24.40;27.95;97112.13;6146369;28;96858;-65
2022/09/28 11:45:32;;;;;;;;;3.00;3.00;;;;;24.78;27.81;97106.78;6146351;28;96728;-64
2022/09/28 11:48:42;;;;;;;;;3.00;3.00;;;;;25.42;27.28;97116.53;6156690;28;96870;-66
2022/09/28 11:51:48;;;;;;;;;3.00;3.00;;;;;26.13;26.27;97109.75;6147210;28;96515;-64
2022/09/28 11:54:57;;;;;;;;;3.00;3.00;;;;;26.62;25.17;97101.56;6157913;28;96601;-65
2022/09/28 11:58:10;;;;;;;;;2.00;2.00;;;;;27.09;24.72;97092.84;6130553;28;97062;-65
2022/09/28 12:01:23;;;;;;;;;3.00;3.00;;;;;27.34;24.10;97085.72;6153527;28;97057;-65
2022/09/28 12:04:52;;;;;;;;;4.00;3.40;;;;;27.99;23.91;97083.41;6136189;28;97720;-67
2022/09/28 12:08:04;;;;;;;;;1.00;1.00;;;;;27.59;23.96;97080.53;6137609;28;96614;-66
2022/09/28 12:11:31;;;;;;;;;2.00;2.00;;;;;27.61;24.41;97077.41;6158852;28;97565;-66
2022/09/28 12:15:00;;;;;;;;;4.00;3.00;;;;;27.99;24.16;97068.75;6147229;28;96517;-66
2022/09/28 12:18:09;;;;;;;;;1.00;1.00;;;;;27.92;23.95;97072.22;6164798;28;96588;-66
2022/09/28 12:21:28;;;;;;;;;1.60;1.60;;;;;27.92;22.94;97069.47;6165036;28;96212;-66
2022/09/28 12:24:36;;;;;;;;;3.00;2.00;;;;;28.19;23.37;97061.06;6164575;28;96339;-65
2022/09/28 12:27:45;;;;;;;;;1.20;1.20;;;;;28.13;23.59;97048.72;6160681;28;97525;-65
2022/09/28 12:30:50;;;;;;;;;2.20;2.20;;;;;28.11;23.22;97065.72;6147353;28;96398;-65
2022/09/28 12:33:54;;;;;;;;;3.00;3.00;;;;;28.14;23.43;97075.25;6146117;28;96351;-66
2022/09/28 12:37:13;;;;;;;;;2.00;2.00;;;;;28.23;23.46;97065.47;6159407;28;96565;-64
2022/09/28 12:40:41;;;;;;;;;3.00;3.00;;;;;28.34;23.56;97060.03;6154470;28;97659;-65
2022/09/28 12:43:59;;;;;;;;;1.00;1.00;;;;;28.07;23.91;97053.78;6157379;28;96835;-65
2022/09/28 12:47:31;;;;;;;;;1.00;1.00;;;;;27.89;23.46;97050.03;6173754;28;96292;-65
2022/09/28 12:50:44;;;;;;;;;2.00;2.00;;;;;27.36;24.19;97046.63;6175349;28;97464;-66
2022/09/28 12:54:03;;;;;;;;;3.00;3.00;;;;;27.25;24.63;97035.41;6177106;28;96715;-65
2022/09/28 12:57:29;;;;;;;;;2.00;2.00;;;;;27.31;24.82;97033.91;6179594;28;96353;-66
2022/09/28 13:00:47;;;;;;;;;1.00;1.00;;;;;27.42;24.27;97037.59;6163722;28;96668;-66
2022/09/28 13:04:10;;;;;;;;;2.00;2.00;;;;;27.46;24.23;97030.16;6156305;28;96824;-64
2022/09/28 13:07:26;;;;;;;;;1.25;1.25;;;;;27.61;23.86;97035.88;6169721;28;96445;-65
2022/09/28 13:10:36;;;;;;;;;2.00;2.00;;;;;27.40;24.37;97037.19;6128884;28;98014;-65
2022/09/28 13:13:48;;;;;;;;;1.00;1.00;;;;;27.44;24.44;97042.75;6173665;28;97164;-66
2022/09/28 13:16:58;;;;;;;;;2.00;2.00;;;;;27.32;25.25;97029.94;6162452;28;97480;-66
2022/09/28 13:20:17;;;;;;;;;2.00;2.00;;;;;27.28;25.07;97042.13;6160381;28;96492;-65
2022/09/28 13:23:23;;;;;;;;;2.00;2.00;;;;;27.07;24.84;97037.13;6156246;28;97636;-64
2022/09/28 13:26:31;;;;;;;;;2.00;1.25;;;;;26.59;26.22;97028.47;6140632;28;96879;-65
2022/09/28 13:29:35;;;;;;;;;1.60;1.60;;;;;25.88;26.79;97030.00;6162400;28;96659;-65
2022/09/28 13:32:39;;;;;;;;;2.00;2.00;;;;;25.57;27.61;97030.19;6174293;28;97653;-66
2022/09/28 13:35:44;;;;;;;;;2.33;2.00;;;;;25.31;28.21;97028.06;6145430;28;99695;-65
2022/09/28 13:38:51;;;;;;;;;3.00;3.00;;;;;25.13;29.27;97034.34;6160612;28;96848;-64
2022/09/28 13:41:54;;;;;;;;;3.00;3.00;;;;;24.86;29.09;97020.38;6158484;28;97307;-65
2022/09/28 13:45:15;;;;;;;;;4.00;4.00;;;;;24.82;28.93;97013.97;6160014;28;96904;-65
2022/09/28 13:48:21;;;;;;;;;2.60;2.60;;;;;24.79;28.88;97014.69;6138463;28;99268;-66
2022/09/28 13:51:39;;;;;;;;;2.00;2.00;;;;;24.62;29.08;97001.31;6154630;28;97803;-64
2022/09/28 13:55:08;;;;;;;;;2.00;2.00;;;;;24.44;29.31;97014.63;6122701;28;98723;-66
2022/09/28 13:58:21;;;;;;;;;3.00;3.00;;;;;24.37;29.66;97020.00;6158739;28;97867;-64
2022/09/28 14:01:29;;;;;;;;;4.60;4.40;;;;;24.26;29.93;97029.13;6154094;28;98498;-65
2022/09/28 14:04:54;;;;;;;;;6.00;5.00;;;;;24.11;30.38;97028.75;6133515;28;96943;-64
2022/09/28 14:08:23;;;;;;;;;2.20;2.20;;;;;23.96;30.11;97028.72;6162703;28;97377;-64
2022/09/28 14:11:54;;;;;;;;;3.00;3.00;;;;;23.86;30.79;97040.25;6151892;28;96694;-66
2022/09/28 14:14:57;;;;;;;;;2.60;2.20;;;;;23.70;30.85;97034.75;6166914;28;97588;-66
2022/09/28 14:18:10;;;;;;;;;8.00;6.00;;;;;23.60;31.41;97038.00;6148471;28;98681;-64
2022/09/28 14:21:31;;;;;;;;;9.00;9.00;;;;;23.46;31.32;97035.63;6150651;28;96341;-64
2022/09/28 14:24:50;;;;;;;;;4.00;3.40;;;;;23.33;31.53;97040.34;6143905;28;97023;-65
2022/09/28 14:28:22;;;;;;;;;3.00;3.00;;;;;23.21;31.53;97025.88;6148620;28;96439;-65
2022/09/28 14:31:28;;;;;;;;;3.00;3.00;;;;;23.08;33.06;97011.34;6147133;28;96815;-65
2022/09/28 14:34:37;;;;;;;;;4.00;4.00;;;;;22.94;33.19;97010.13;6182446;28;96995;-65
2022/09/28 14:41:11;;;;;;;;;5.25;5.00;;;;;22.71;34.50;97018.06;6168505;28;96642;-65
2022/09/28 14:44:16;;;;;;;;;6.00;5.00;;;;;22.60;35.62;97001.22;6179540;28;96819;-65
2022/09/28 14:47:34;;;;;;;;;4.00;4.00;;;;;22.25;36.37;97005.56;6134190;28;98491;-65
2022/09/28 14:50:38;;;;;;;;;4.00;4.00;;;;;22.04;36.54;97009.22;6137912;28;99217;-65
2022/09/28 14:53:42;;;;;;;;;3.00;3.00;;;;;21.83;36.49;97007.69;6158955;28;98363;-65
2022/09/28 14:56:56;;;;;;;;;2.00;2.00;;;;;21.70;37.41;97008.81;6185608;28;96635;-66
2022/09/28 15:00:07;;;;;;;;;3.00;3.00;;;;;21.64;37.23;97004.66;6165127;28;96697;-64
2022/09/28 15:03:12;;;;;;;;;3.20;3.20;;;;;21.33;38.27;97002.38;6178159;28;96518;-64
2022/09/28 15:06:17;;;;;;;;;3.00;3.00;;;;;21.14;39.39;97006.44;6148907;28;98659;-65
2022/09/28 15:09:27;;;;;;;;;4.50;4.00;;;;;20.90;40.29;97003.53;6145832;28;96635;-65
2022/09/28 15:12:32;;;;;;;;;4.00;4.00;;;;;20.74;40.61;97003.31;6163940;28;98419;-65
2022/09/28 15:15:38;;;;;;;;;2.00;2.00;;;;;20.68;40.75;97014.78;6164153;28;97102;-66
2022/09/28 15:19:14;;;;;;;;;3.00;3.00;;;;;20.71;41.40;97009.47;6163947;28;97418;-66